createdAt,value
2024-02-13T00:02:04.113Z,63.72
2024-02-13T00:04:33.631Z,64.09
2024-02-13T00:07:01.031Z,63.75
2024-02-13T00:09:27.983Z,64.37
2024-02-13T00:12:08.414Z,64.29
2024-02-13T00:15:02.367Z,64.10
2024-02-13T00:17:58.655Z,64.20
2024-02-13T00:20:50.504Z,64.47
2024-02-13T00:24:01.452Z,64.37
2024-02-13T00:26:49.300Z,64.46
2024-02-13T00:29:42.266Z,64.32
2024-02-13T00:32:33.420Z,64.67
2024-02-13T00:35:10.048Z,64.27
2024-02-13T00:37:51.622Z,64.60
2024-02-13T00:40:23.531Z,64.53
2024-02-13T00:42:56.264Z,64.48
2024-02-13T00:45:23.484Z,64.52
2024-02-13T00:47:51.433Z,64.36
2024-02-13T00:50:18.827Z,64.11
2024-02-13T00:52:47.851Z,64.45
2024-02-13T00:55:14.943Z,64.48
2024-02-13T00:57:41.752Z,64.52
2024-02-13T01:00:12.983Z,64.31
2024-02-13T01:02:41.435Z,64.18
2024-02-13T01:05:08.962Z,64.02
2024-02-13T01:07:38.241Z,64.20
2024-02-13T01:10:08.156Z,64.18
2024-02-13T01:12:35.637Z,63.97
2024-02-13T01:15:10.265Z,63.72
2024-02-13T01:17:52.711Z,63.83
2024-02-13T01:20:44.704Z,64.03
2024-02-13T01:23:13.636Z,63.97
2024-02-13T01:25:42.010Z,64.12
2024-02-13T01:28:21.926Z,63.79
2024-02-13T01:30:51.251Z,64.02
2024-02-13T01:33:39.776Z,64.15
2024-02-13T01:36:19.138Z,64.40
2024-02-13T01:39:01.327Z,64.61
2024-02-13T01:41:31.286Z,64.63
2024-02-13T01:44:05.696Z,64.39
2024-02-13T01:46:55.546Z,64.26
2024-02-13T01:49:22.988Z,64.38
2024-02-13T01:52:12.041Z,64.25
2024-02-13T01:54:39.007Z,64.19
2024-02-13T01:57:15.188Z,64.19
2024-02-13T02:00:05.036Z,64.32
2024-02-13T02:02:46.831Z,64.53
2024-02-13T02:05:15.408Z,64.37
2024-02-13T02:07:45.139Z,64.63
2024-02-13T02:10:30.506Z,64.41
2024-02-13T02:13:06.329Z,64.79
2024-02-13T02:16:04.545Z,64.88
2024-02-13T02:18:32.167Z,64.99
2024-02-13T02:20:59.921Z,65.00
2024-02-13T02:23:42.254Z,65.08
2024-02-13T02:26:17.960Z,65.43
2024-02-13T02:29:07.311Z,65.33
2024-02-13T02:31:56.322Z,65.23
2024-02-13T02:34:25.356Z,65.65
2024-02-13T02:36:54.715Z,65.94
2024-02-13T02:39:22.455Z,66.39
2024-02-13T02:42:19.174Z,66.61
2024-02-13T02:45:31.075Z,67.09
2024-02-13T02:48:20.197Z,67.39
2024-02-13T02:51:08.012Z,67.87
2024-02-13T02:53:41.066Z,67.89
2024-02-13T02:56:12.454Z,67.70
2024-02-13T02:58:55.840Z,67.85
2024-02-13T03:01:24.175Z,68.28
2024-02-13T03:04:13.264Z,68.46
2024-02-13T03:06:43.090Z,68.72
2024-02-13T03:09:10.070Z,68.72
2024-02-13T03:11:58.178Z,68.62
2024-02-13T03:14:37.358Z,68.97
2024-02-13T03:17:13.332Z,68.98
2024-02-13T03:20:02.489Z,69.16
2024-02-13T03:23:04.424Z,69.05
2024-02-13T03:25:48.467Z,68.80
2024-02-13T03:28:15.361Z,68.91
2024-02-13T03:30:42.397Z,68.76
2024-02-13T03:33:11.520Z,68.94
2024-02-13T03:35:45.287Z,68.98
2024-02-13T03:38:14.507Z,68.96
2024-02-13T03:40:44.958Z,69.02
2024-02-13T03:43:20.451Z,69.00
2024-02-13T03:45:47.425Z,68.92
2024-02-13T03:48:14.722Z,68.98
2024-02-13T03:50:47.412Z,69.20
2024-02-13T03:53:37.075Z,69.18
2024-02-13T03:56:28.770Z,69.24
2024-02-13T03:59:17.545Z,68.95
2024-02-13T04:02:06.247Z,69.10
2024-02-13T04:04:58.713Z,69.17
2024-02-13T04:07:28.465Z,69.01
2024-02-13T04:10:21.046Z,69.07
2024-02-13T04:12:51.917Z,69.17
2024-02-13T04:16:25.021Z,68.97
2024-02-13T04:19:35.137Z,69.20
2024-02-13T04:22:27.103Z,69.17
2024-02-13T04:25:43.545Z,69.05
2024-02-13T04:28:13.324Z,69.00
2024-02-13T04:30:57.909Z,68.87
2024-02-13T04:33:40.143Z,68.71
2024-02-13T04:36:27.332Z,68.75
2024-02-13T04:39:28.137Z,68.95
2024-02-13T04:42:11.636Z,69.01
2024-02-13T04:45:19.042Z,68.97
2024-02-13T04:47:59.412Z,69.22
2024-02-13T04:50:33.947Z,69.27
2024-02-13T04:53:06.128Z,69.06
2024-02-13T04:55:47.726Z,68.80
2024-02-13T04:58:19.414Z,68.28
2024-02-13T05:00:52.944Z,67.83
2024-02-13T05:03:41.081Z,67.48
2024-02-13T05:06:27.441Z,67.48
2024-02-13T05:08:57.409Z,67.20
2024-02-13T05:11:29.487Z,66.98
2024-02-13T05:14:03.997Z,66.86
2024-02-13T05:16:33.013Z,66.82
2024-02-13T05:19:22.441Z,66.85
2024-02-13T05:21:52.125Z,66.97
2024-02-13T05:24:19.311Z,66.72
2024-02-13T05:26:51.960Z,66.88
2024-02-13T05:29:19.371Z,66.79
2024-02-13T05:31:51.726Z,66.62
2024-02-13T05:34:35.247Z,66.51
2024-02-13T05:37:22.656Z,66.51
2024-02-13T05:40:13.142Z,66.56
2024-02-13T05:42:44.369Z,66.56
2024-02-13T05:45:14.985Z,66.47
2024-02-13T05:47:50.379Z,66.25
2024-02-13T05:50:26.767Z,66.23
2024-02-13T05:52:56.246Z,66.54
2024-02-13T05:55:26.130Z,66.63
2024-02-13T05:57:52.944Z,66.66
2024-02-13T06:00:26.130Z,66.78
2024-02-13T06:02:56.604Z,66.91
2024-02-13T06:05:24.682Z,66.84
2024-02-13T06:07:56.132Z,66.94
2024-02-13T06:10:48.389Z,66.61
2024-02-13T06:13:41.590Z,66.51
2024-02-13T06:16:22.578Z,66.24
2024-02-13T06:18:49.823Z,66.41
2024-02-13T06:21:22.541Z,66.37
2024-02-13T06:23:54.391Z,66.52
2024-02-13T06:27:04.909Z,66.46
2024-02-13T06:29:47.529Z,66.50
2024-02-13T06:32:38.217Z,66.55
2024-02-13T06:35:25.371Z,66.67
2024-02-13T06:38:25.078Z,66.64
2024-02-13T06:41:06.984Z,66.78
2024-02-13T06:43:34.997Z,66.94
2024-02-13T06:46:07.716Z,67.17
2024-02-13T06:48:49.015Z,66.84
2024-02-13T06:51:25.918Z,66.81
2024-02-13T06:54:03.955Z,66.94
2024-02-13T06:56:30.792Z,67.31
2024-02-13T06:58:57.787Z,67.21
2024-02-13T07:01:25.853Z,67.27
2024-02-13T07:03:53.026Z,67.16
2024-02-13T07:06:32.999Z,67.15
2024-02-13T07:09:08.800Z,67.38
2024-02-13T07:12:05.487Z,66.82
2024-02-13T07:14:33.254Z,66.10
2024-02-13T07:17:25.461Z,64.83
2024-02-13T07:20:33.009Z,64.30
2024-02-13T07:23:00.223Z,63.51
2024-02-13T07:25:27.215Z,63.66
2024-02-13T07:27:58.923Z,63.57
2024-02-13T07:30:27.636Z,62.87
2024-02-13T07:32:56.098Z,62.25
2024-02-13T07:35:24.570Z,62.27
2024-02-13T07:37:51.728Z,62.01
2024-02-13T07:40:23.902Z,62.63
2024-02-13T07:42:58.475Z,63.22
2024-02-13T07:45:27.891Z,62.87
2024-02-13T07:47:55.369Z,61.94
2024-02-13T07:50:23.336Z,62.02
2024-02-13T07:52:53.581Z,62.05
2024-02-13T07:55:21.214Z,62.22
2024-02-13T07:57:52.141Z,62.05
2024-02-13T08:00:31.032Z,62.17
2024-02-13T08:02:58.735Z,61.82
2024-02-13T08:05:38.487Z,60.68
2024-02-13T08:08:14.584Z,60.78
2024-02-13T08:10:53.224Z,60.76
2024-02-13T08:13:43.597Z,60.92
2024-02-13T08:16:14.640Z,61.21
2024-02-13T08:18:51.943Z,61.75
2024-02-13T08:21:19.541Z,61.53
2024-02-13T08:23:49.411Z,61.92
2024-02-13T08:26:25.651Z,62.08
2024-02-13T08:29:14.395Z,61.45
2024-02-13T08:31:59.166Z,61.68
2024-02-13T08:34:28.486Z,61.53
2024-02-13T08:37:09.902Z,62.04
2024-02-13T08:40:07.421Z,62.27
2024-02-13T08:42:54.392Z,62.32
2024-02-13T08:45:23.140Z,62.53
2024-02-13T08:47:56.655Z,62.90
2024-02-13T08:50:54.456Z,63.39
2024-02-13T08:53:24.922Z,63.89
2024-02-13T08:56:10.114Z,63.76
2024-02-13T08:58:58.075Z,64.22
2024-02-13T09:01:48.964Z,64.63
2024-02-13T09:04:40.976Z,64.62
2024-02-13T09:07:08.378Z,64.70
2024-02-13T09:09:36.077Z,65.08
2024-02-13T09:12:09.726Z,65.22
2024-02-13T09:14:45.126Z,65.53
2024-02-13T09:17:15.550Z,65.78
2024-02-13T09:19:51.636Z,66.13
2024-02-13T09:23:00.933Z,66.21
2024-02-13T09:25:40.399Z,65.63
2024-02-13T09:28:42.469Z,66.13
2024-02-13T09:31:46.345Z,66.60
2024-02-13T09:34:37.156Z,67.62
2024-02-13T09:37:41.577Z,67.46
2024-02-13T09:41:10.413Z,67.07
2024-02-13T09:44:08.440Z,66.30
2024-02-13T09:47:26.471Z,66.23
2024-02-13T09:50:16.580Z,65.80
2024-02-13T09:53:31.002Z,65.50
2024-02-13T09:56:22.233Z,65.32
2024-02-13T09:59:26.318Z,65.21
2024-02-13T10:02:39.853Z,65.49
2024-02-13T10:05:12.030Z,65.45
2024-02-13T10:08:32.727Z,65.37
2024-02-13T10:11:17.730Z,65.50
2024-02-13T10:13:48.534Z,65.40
2024-02-13T10:16:30.215Z,64.26
2024-02-13T10:19:21.454Z,63.07
2024-02-13T10:21:52.833Z,63.27
2024-02-13T10:24:31.814Z,63.20
2024-02-13T10:27:16.066Z,62.56
2024-02-13T10:29:50.130Z,61.75
2024-02-13T10:32:58.834Z,61.54
2024-02-13T10:35:57.552Z,61.85
2024-02-13T10:38:51.428Z,63.19
2024-02-13T10:42:01.457Z,63.76
2024-02-13T10:44:45.214Z,64.60
2024-02-13T10:47:16.770Z,64.33
2024-02-13T10:50:01.702Z,64.04
2024-02-13T10:52:40.197Z,64.14
2024-02-13T10:56:08.844Z,63.84
2024-02-13T10:59:22.890Z,63.87
2024-02-13T11:02:00.657Z,64.45
2024-02-13T11:04:44.803Z,63.89
2024-02-13T11:07:44.490Z,62.78
2024-02-13T11:10:56.213Z,63.21
2024-02-13T11:13:36.584Z,63.61
2024-02-13T11:17:03.802Z,62.63
2024-02-13T11:20:29.689Z,63.10
2024-02-13T11:23:28.838Z,62.73
2024-02-13T11:26:21.803Z,62.46
2024-02-13T11:29:26.911Z,61.58
2024-02-13T11:32:29.679Z,61.16
2024-02-13T11:35:59.473Z,60.63
2024-02-13T11:39:20.978Z,60.43
2024-02-13T11:41:58.833Z,61.12
2024-02-13T11:45:01.469Z,61.19
2024-02-13T11:48:32.542Z,60.68
2024-02-13T11:51:31.550Z,60.25
2024-02-13T11:54:22.459Z,59.74
2024-02-13T11:57:49.160Z,59.56
2024-02-13T12:00:58.508Z,59.03
2024-02-13T12:03:28.701Z,58.28
2024-02-13T12:05:57.766Z,57.20
2024-02-13T12:08:31.656Z,56.64
2024-02-13T12:11:20.077Z,56.21
2024-02-13T12:14:10.567Z,56.13
2024-02-13T12:17:13.887Z,56.78
2024-02-13T12:20:26.500Z,55.98
2024-02-13T12:23:16.208Z,56.00
2024-02-13T12:25:59.569Z,57.20
2024-02-13T12:28:57.191Z,57.32
2024-02-13T12:31:24.692Z,57.58
2024-02-13T12:34:12.008Z,57.63
2024-02-13T12:36:39.948Z,57.39
2024-02-13T12:39:18.268Z,57.13
2024-02-13T12:41:58.954Z,57.19
2024-02-13T12:44:26.501Z,57.63
2024-02-13T12:47:11.995Z,58.01
2024-02-13T12:49:40.471Z,57.80
2024-02-13T12:52:23.805Z,58.38
2024-02-13T12:54:59.928Z,58.96
2024-02-13T12:57:56.187Z,58.12
2024-02-13T13:00:47.109Z,57.11
2024-02-13T13:03:59.349Z,56.52
2024-02-13T13:06:41.534Z,56.35
2024-02-13T13:09:44.199Z,56.53
2024-02-13T13:12:13.752Z,55.00
2024-02-13T13:14:48.120Z,54.79
2024-02-13T13:17:17.524Z,54.82
2024-02-13T13:19:46.120Z,54.51
2024-02-13T13:22:27.644Z,55.03
2024-02-13T13:24:58.387Z,54.61
2024-02-13T13:28:18.858Z,54.11
2024-02-13T13:31:21.502Z,53.98
2024-02-13T13:34:22.608Z,53.44
2024-02-13T13:37:11.895Z,53.22
2024-02-13T13:40:29.103Z,53.29
2024-02-13T13:42:56.284Z,53.64
2024-02-13T13:45:28.623Z,53.89
2024-02-13T13:48:21.510Z,53.44
2024-02-13T13:51:14.878Z,53.04
2024-02-13T13:54:21.933Z,53.37
2024-02-13T13:56:48.962Z,53.52
2024-02-13T13:59:31.589Z,53.72
2024-02-13T14:02:19.464Z,54.53
2024-02-13T14:04:57.667Z,54.21
2024-02-13T14:07:24.689Z,54.38
2024-02-13T14:10:15.121Z,54.39
2024-02-13T14:12:57.369Z,54.44
2024-02-13T14:15:58.867Z,54.67
2024-02-13T14:19:09.139Z,53.28
2024-02-13T14:22:19.606Z,53.29
2024-02-13T14:25:23.899Z,53.04
2024-02-13T14:28:19.693Z,53.23
2024-02-13T14:31:10.586Z,53.27
2024-02-13T14:34:29.938Z,53.35
2024-02-13T14:37:27.130Z,53.21
2024-02-13T14:40:08.526Z,53.44
2024-02-13T14:42:46.471Z,53.71
2024-02-13T14:45:13.818Z,53.92
2024-02-13T14:48:12.699Z,54.91
2024-02-13T14:50:44.750Z,55.12
2024-02-13T14:53:58.459Z,55.52
2024-02-13T14:56:50.002Z,55.43
2024-02-13T14:59:21.982Z,55.43
2024-02-13T15:02:44.167Z,55.44
2024-02-13T15:06:01.547Z,55.86
2024-02-13T15:08:28.659Z,55.87
2024-02-13T15:10:57.637Z,56.17
2024-02-13T15:13:54.848Z,56.43
2024-02-13T15:16:22.070Z,56.27
2024-02-13T15:18:53.594Z,56.54
2024-02-13T15:21:23.649Z,56.80
2024-02-13T15:24:13.517Z,57.05
2024-02-13T15:27:39.984Z,56.98
2024-02-13T15:30:12.435Z,57.21
2024-02-13T15:32:48.323Z,57.16
2024-02-13T15:35:15.489Z,57.18
2024-02-13T15:48:18.600Z,58.23
2024-02-13T15:50:47.488Z,57.88
2024-02-13T15:53:14.343Z,57.77
2024-02-13T15:55:41.105Z,57.11
2024-02-13T15:58:08.405Z,57.28
2024-02-13T16:00:35.227Z,57.76
2024-02-13T16:03:04.258Z,57.52
2024-02-13T16:05:31.722Z,57.79
2024-02-13T16:07:59.690Z,58.13
2024-02-13T16:10:30.655Z,58.14
2024-02-13T16:12:57.482Z,58.51
2024-02-13T16:15:27.733Z,58.52
2024-02-13T16:17:55.286Z,58.52
2024-02-13T16:20:23.498Z,58.77
2024-02-13T16:22:50.444Z,59.00
2024-02-13T16:25:17.760Z,59.14
2024-02-13T16:27:51.207Z,59.21
2024-02-13T16:30:20.018Z,59.45
2024-02-13T16:32:47.349Z,59.48
2024-02-13T16:35:16.137Z,59.17
2024-02-13T16:37:44.876Z,59.14
2024-02-13T16:40:15.070Z,59.14
2024-02-13T16:42:42.089Z,59.12
2024-02-13T16:45:09.849Z,59.17
2024-02-13T16:47:38.991Z,59.31
2024-02-13T16:50:16.119Z,58.84
2024-02-13T16:52:43.595Z,59.14
2024-02-13T16:55:10.657Z,59.15
2024-02-13T16:57:42.330Z,59.37
2024-02-13T17:00:12.082Z,59.41
2024-02-13T17:02:40.475Z,59.42
2024-02-13T17:05:13.747Z,59.62
2024-02-13T17:07:45.057Z,60.07
2024-02-13T17:10:16.559Z,59.96
2024-02-13T17:12:43.570Z,60.20
2024-02-13T17:15:12.993Z,60.19
2024-02-13T17:17:40.815Z,60.34
2024-02-13T17:20:09.716Z,60.43
2024-02-13T17:22:36.500Z,60.61
2024-02-13T17:25:03.490Z,60.79
2024-02-13T17:27:30.592Z,60.22
2024-02-13T17:29:57.774Z,60.22
2024-02-13T17:32:24.766Z,60.52
2024-02-13T17:34:51.577Z,60.48
2024-02-13T17:37:18.409Z,61.00
2024-02-13T17:39:45.202Z,61.07
2024-02-13T17:42:12.060Z,61.10
2024-02-13T17:44:39.479Z,61.44
2024-02-13T17:47:07.772Z,61.48
2024-02-13T17:49:35.954Z,61.61
2024-02-13T17:52:04.087Z,61.90
2024-02-13T17:54:30.782Z,62.21
2024-02-13T17:56:57.642Z,61.98
2024-02-13T17:59:25.225Z,62.12
2024-02-13T18:01:53.751Z,62.19
2024-02-13T18:04:22.093Z,62.28
2024-02-13T18:06:49.555Z,62.41
2024-02-13T18:09:16.428Z,62.53
2024-02-13T18:11:43.751Z,62.81
2024-02-13T18:14:11.453Z,63.09
2024-02-13T18:16:38.419Z,63.24
2024-02-13T18:19:07.334Z,63.37
2024-02-13T18:21:34.405Z,63.00
2024-02-13T18:24:02.669Z,63.03
2024-02-13T18:26:30.306Z,62.73
2024-02-13T18:28:57.208Z,62.73
2024-02-13T18:31:25.372Z,63.02
2024-02-13T18:33:52.452Z,62.91
2024-02-13T18:36:20.153Z,63.27
2024-02-13T18:38:51.944Z,63.32
2024-02-13T18:41:19.291Z,63.08
2024-02-13T18:43:47.485Z,63.55
2024-02-13T18:46:15.440Z,63.68
2024-02-13T18:48:43.065Z,63.65
2024-02-13T18:51:10.841Z,63.73
2024-02-13T18:53:37.820Z,63.34
2024-02-13T18:56:04.856Z,63.64
2024-02-13T18:58:37.211Z,63.84
2024-02-13T19:01:05.018Z,63.74
2024-02-13T19:03:32.462Z,63.80
2024-02-13T19:06:04.853Z,63.91
2024-02-13T19:08:36.608Z,64.04
2024-02-13T19:11:03.680Z,63.81
2024-02-13T19:13:30.376Z,63.96
2024-02-13T19:15:57.260Z,63.98
2024-02-13T19:18:24.659Z,64.27
2024-02-13T19:20:55.653Z,64.30
2024-02-13T19:23:25.106Z,64.15
2024-02-13T19:25:52.480Z,64.18
2024-02-13T19:28:19.581Z,64.47
2024-02-13T19:30:51.887Z,64.49
2024-02-13T19:33:18.900Z,64.50
2024-02-13T19:35:46.606Z,64.65
2024-02-13T19:38:18.284Z,65.24
2024-02-13T19:40:46.346Z,65.52
2024-02-13T19:43:13.262Z,65.79
2024-02-13T19:45:44.185Z,65.45
2024-02-13T19:48:11.551Z,65.63
2024-02-13T19:50:40.106Z,65.46
2024-02-13T19:53:08.724Z,65.28
2024-02-13T19:55:37.603Z,65.32
2024-02-13T19:58:05.163Z,65.05
2024-02-13T20:00:34.501Z,64.95
2024-02-13T20:03:03.083Z,65.25
2024-02-13T20:05:30.152Z,65.09
2024-02-13T20:07:58.678Z,64.85
2024-02-13T20:10:25.518Z,64.79
2024-02-13T20:12:52.372Z,64.80
2024-02-13T20:15:19.275Z,64.86
2024-02-13T20:17:46.509Z,65.03
2024-02-13T20:20:16.699Z,65.04
2024-02-13T20:22:46.732Z,65.35
2024-02-13T20:25:14.555Z,65.11
2024-02-13T20:27:45.385Z,65.14
2024-02-13T20:30:17.134Z,65.45
2024-02-13T20:32:49.064Z,65.45
2024-02-13T20:35:16.421Z,65.17
2024-02-13T20:37:44.023Z,65.39
2024-02-13T20:40:13.292Z,65.29
2024-02-13T20:42:46.994Z,65.40
2024-02-13T20:45:21.346Z,65.03
2024-02-13T20:47:51.322Z,65.29
2024-02-13T20:50:19.128Z,65.33
2024-02-13T20:52:45.866Z,65.16
2024-02-13T20:55:14.935Z,64.95
2024-02-13T20:57:44.368Z,65.55
2024-02-13T21:00:15.248Z,65.71
2024-02-13T21:02:43.529Z,65.75
2024-02-13T21:05:13.854Z,65.82
2024-02-13T21:07:40.804Z,66.17
2024-02-13T21:10:10.345Z,66.05
2024-02-13T21:12:37.269Z,66.02
2024-02-13T21:15:04.410Z,66.10
2024-02-13T21:17:32.088Z,66.11
2024-02-13T21:20:01.507Z,66.32
2024-02-13T21:22:47.149Z,66.16
2024-02-13T21:25:18.936Z,66.13
2024-02-13T21:27:46.805Z,66.50
2024-02-13T21:30:13.770Z,66.44
2024-02-13T21:32:40.665Z,66.58
2024-02-13T21:35:12.155Z,66.37
2024-02-13T21:37:40.605Z,66.39
2024-02-13T21:40:15.341Z,66.34
2024-02-13T21:42:42.948Z,66.51
2024-02-13T21:45:10.320Z,66.56
2024-02-13T21:47:42.593Z,66.32
2024-02-13T21:50:10.671Z,66.61
2024-02-13T21:52:38.107Z,66.29
2024-02-13T21:55:06.466Z,66.71
2024-02-13T21:57:33.468Z,66.45
2024-02-13T22:00:04.628Z,66.24
2024-02-13T22:02:31.708Z,66.66
2024-02-13T22:04:58.470Z,66.52
2024-02-13T22:07:25.291Z,66.19
2024-02-13T22:09:52.072Z,66.21
2024-02-13T22:12:18.829Z,66.07
2024-02-13T22:14:45.613Z,66.12
2024-02-13T22:17:12.343Z,66.09
2024-02-13T22:19:39.195Z,66.11
2024-02-13T22:22:06.312Z,66.32
2024-02-13T22:24:33.652Z,66.16
2024-02-13T22:27:00.456Z,66.30
2024-02-13T22:29:27.296Z,66.09
2024-02-13T22:31:53.982Z,66.30
2024-02-13T22:34:24.772Z,66.26
2024-02-13T22:36:53.720Z,66.08
2024-02-13T22:39:20.418Z,66.31
2024-02-13T22:41:47.166Z,66.18
2024-02-13T22:44:14.423Z,66.10
2024-02-13T22:46:42.217Z,66.18
2024-02-13T22:49:09.127Z,66.12
2024-02-13T22:51:36.069Z,66.33
2024-02-13T22:54:02.895Z,66.20
2024-02-13T22:56:29.689Z,66.37
2024-02-13T22:58:56.710Z,65.94
2024-02-13T23:01:25.261Z,66.02
2024-02-13T23:03:52.363Z,66.15
2024-02-13T23:06:20.658Z,66.32
2024-02-13T23:08:47.612Z,66.17
2024-02-13T23:11:14.510Z,66.21
2024-02-13T23:13:45.718Z,65.89
2024-02-13T23:16:16.210Z,66.37
2024-02-13T23:18:43.210Z,66.13
2024-02-13T23:21:10.424Z,66.56
2024-02-13T23:23:37.217Z,66.29
2024-02-13T23:26:04.162Z,66.44
2024-02-13T23:28:38.874Z,66.55
2024-02-13T23:31:13.308Z,66.84
2024-02-13T23:33:40.609Z,66.69
2024-02-13T23:36:10.356Z,67.09
2024-02-13T23:38:37.366Z,67.09
2024-02-13T23:41:05.220Z,67.22
2024-02-13T23:43:31.979Z,67.19
2024-02-13T23:45:58.774Z,67.16
2024-02-13T23:48:25.684Z,66.93
2024-02-13T23:50:52.625Z,66.63
2024-02-13T23:53:19.469Z,66.65
2024-02-13T23:55:48.644Z,66.80
2024-02-13T23:58:17.583Z,66.81
